Ride Results

Jill Sheean Memorial (07-02-2009)
Ride distance: 80.0 km

Outcomes - Jill Sheean Memorial (07-02-2009)
Division No. of Entries Retired / DNE Completed Withdrawn Ineligible V/O Percentage Completed
HW 3 - 2 - - 1 66.67%
MW 10 - 7 1 - 2 70.00%
LW 13 - 9 - - 4 69.23%
JN 7 - 7 - - - 100.00%
Totals 33 - 25 1 - 7 75.76%
Results - Jill Sheean Memorial (07-02-2009)
No. Rider Horse Place Time Leg Speeds Total
Km/Hr
H/R bpm
Heavyweight
11 Adam Richardson Ollie 1 (BC) 6:28:00 13.1, 11.6 12.37 47, 41, 54 (Avg:47)
49 Alison Colbeck Chanti 2 7:54:02 10.5, 9.7 10.13 34, 42, 53 (Avg:47)
D Noel Lockhart Ralvon Splendour Lame L1 0:00:00 11.7 - 36, 41 (Avg:41)
Middleweight
99 Heather Johnson Touchwarr Dupal 1 (BC) 5:23:00 16.3, 13.6 14.86 35, 45, 49 (Avg:47)
88 Anthony Bloom Kerribea 2 5:50:00 14.3, 13.1 13.71 35, 43, 49 (Avg:46)
130 Shane Flint Yarraman 3 6:07:00 13.0, 13.1 13.08 31, 44, 59 (Avg:51)
193 Stacey Dodd Deneldan Sharday 4 6:46:00 11.6, 11.9 11.82 34, 41, 49 (Avg:45)
57 Tania Jago River Gum Bounty 5 6:58:01 11.8, 11.1 11.48 38, 43, 40 (Avg:41)
30 Karyn Holden Sharabhan Sashmah 6 7:54:01 10.7, 9.5 10.13 34, 40, 45 (Avg:42)
22 Helen Astell Charisma 7 7:54:06 9.9, 10.2 10.12 34, 48, 51 (Avg:49)
68 Janine Parr Elphyn Prince Lame L2 0:00:00 16.3, 13.6 - 34, 47, 49 (Avg:48)
24a Karen Quinn Lizton Park Moonshadow Lame L2 0:00:00 12.3, 11.1 - 30, 43, 45 (Avg:44)
38a Tony Purton Beer Street Tiger Lily Withdrawn L1 0:00:00 - - 36, 47 (Avg:47)
Lightweight
19 Sonia Hodgetts Millennium Star 1 (BC) 6:46:00 11.6, 12.0 11.82 34, 45, 52 (Avg:48)
83 Angie Clark Dunwingeri Hero 2 6:58:00 11.8, 11.1 11.48 40, 44, 50 (Avg:47)
144 Helan Green Snowdon Vale Estarah 2 6:58:00 11.8, 11.1 11.48 34, 46, 45 (Avg:45)
1 Ann Richards Middleton's Rousabout 4 7:14:00 11.8, 10.3 11.06 32, 41, 49 (Avg:45)
101 Wendy Rand Shayelle Boh Zamm 5 7:23:00 11.7, 10.0 10.84 48, 48, 51 (Avg:49)
191 Debbie Grull Lauralyn Notorious 6 7:31:00 11.0, 10.3 10.64 39, 44, 50 (Avg:47)
48 Toni Sheehan Malricia TC Jilagic 7 7:31:01 10.5, 10.7 10.64 44, 43, 54 (Avg:48)
186 Fran Jordan Tierview Saadat 8 7:54:03 10.3, 9.8 10.13 34, 51, 54 (Avg:52)
100 Trish Smith Anglesea Piccolo 9 8:00:00 10.5, 9.5 10.00 34, 43, 59 (Avg:51)
77 Alison Lockhart Daarsoto Lame L2 0:00:00 11.7, 10.0 - 38, 44, 53 (Avg:48)
189 Kaye Mitchell Beer Street Bluewitch Lame L2 0:00:00 12.9, 10.9 - 40, 42, 41 (Avg:41)
194 Helen Vagg Rojenn Royale Heart Rate L2 0:00:00 10.9, 10.1 - 33, 41, 63 (Avg:52)
138 Kristen Robertson Resolution Lame L1 0:00:00 13.0 - 34, 48 (Avg:48)
Junior
79 Shannon Hill Glendhu Judah 1 6:06:00 13.3, 12.9 13.11 34, 47, 53 (Avg:50)
78 Brad Hill Sandine Allure 1 (BC) 6:06:00 13.3, 12.9 13.11 38, 46, 47 (Avg:46)
92 Blaine Astell Auscot Park Storm 3 6:51:00 12.3, 11.1 11.68 38, 50, 56 (Avg:53)
90 Joshua Williams Karshana Crystal Blue Blaze 4 6:51:01 12.3, 11.1 11.68 32, 40, 48 (Avg:44)
150 Emily Shadbolt Karillon Park Barkodar Bay 5 7:54:00 10.7, 9.6 10.13 33, 41, 43 (Avg:42)
47 Hannah Colbeck Storm 6 7:54:04 10.5, 9.7 10.13 37, 47, 53 (Avg:50)
18 Sheleah Astell Sharacan Landcruza 7 7:54:05 9.9, 10.2 10.12 38, 45, 51 (Avg:48)